sensor_id;sensor_type;location;lat;lon;timestamp;P1;durP1;ratioP1;P2;durP2;ratioP2
45650;SDS011;31365;48.858;8.530;2023-10-08T00:01:16;5.72;;;4.35;;
45650;SDS011;31365;48.858;8.530;2023-10-08T00:03:46;5.55;;;4.40;;
45650;SDS011;31365;48.858;8.530;2023-10-08T00:06:17;5.03;;;4.20;;
45650;SDS011;31365;48.858;8.530;2023-10-08T00:08:47;5.10;;;4.60;;
45650;SDS011;31365;48.858;8.530;2023-10-08T00:11:19;7.68;;;5.18;;
45650;SDS011;31365;48.858;8.530;2023-10-08T00:13:49;6.18;;;4.40;;
45650;SDS011;31365;48.858;8.530;2023-10-08T00:16:22;6.43;;;4.28;;
45650;SDS011;31365;48.858;8.530;2023-10-08T00:18:50;5.00;;;4.32;;
45650;SDS011;31365;48.858;8.530;2023-10-08T00:21:19;7.88;;;4.18;;
45650;SDS011;31365;48.858;8.530;2023-10-08T00:23:54;6.15;;;4.13;;
45650;SDS011;31365;48.858;8.530;2023-10-08T00:26:27;4.47;;;3.92;;
45650;SDS011;31365;48.858;8.530;2023-10-08T00:28:58;4.60;;;3.63;;
45650;SDS011;31365;48.858;8.530;2023-10-08T00:31:33;4.32;;;3.92;;
45650;SDS011;31365;48.858;8.530;2023-10-08T00:34:06;5.97;;;3.97;;
45650;SDS011;31365;48.858;8.530;2023-10-08T00:36:38;4.68;;;3.90;;
45650;SDS011;31365;48.858;8.530;2023-10-08T00:39:08;5.25;;;4.15;;
45650;SDS011;31365;48.858;8.530;2023-10-08T00:41:42;5.10;;;3.55;;
45650;SDS011;31365;48.858;8.530;2023-10-08T00:44:13;4.85;;;4.28;;
45650;SDS011;31365;48.858;8.530;2023-10-08T00:48:11;5.90;;;3.80;;
45650;SDS011;31365;48.858;8.530;2023-10-08T00:50:43;4.18;;;3.80;;
45650;SDS011;31365;48.858;8.530;2023-10-08T00:53:13;4.25;;;3.80;;
45650;SDS011;31365;48.858;8.530;2023-10-08T00:55:48;8.60;;;4.20;;
45650;SDS011;31365;48.858;8.530;2023-10-08T00:58:20;5.13;;;3.92;;
45650;SDS011;31365;48.858;8.530;2023-10-08T01:00:53;5.88;;;3.97;;
45650;SDS011;31365;48.858;8.530;2023-10-08T01:03:29;5.13;;;3.92;;
45650;SDS011;31365;48.858;8.530;2023-10-08T01:06:02;6.13;;;4.00;;
45650;SDS011;31365;48.858;8.530;2023-10-08T01:08:36;12.93;;;4.72;;
45650;SDS011;31365;48.858;8.530;2023-10-08T01:11:18;4.65;;;4.18;;
45650;SDS011;31365;48.858;8.530;2023-10-08T01:13:54;5.68;;;4.43;;
45650;SDS011;31365;48.858;8.530;2023-10-08T01:16:25;7.65;;;4.70;;
45650;SDS011;31365;48.858;8.530;2023-10-08T01:19:19;5.70;;;4.20;;
45650;SDS011;31365;48.858;8.530;2023-10-08T01:21:48;8.07;;;4.35;;
45650;SDS011;31365;48.858;8.530;2023-10-08T01:24:18;4.50;;;4.10;;
45650;SDS011;31365;48.858;8.530;2023-10-08T01:26:50;5.70;;;4.25;;
45650;SDS011;31365;48.858;8.530;2023-10-08T01:29:18;5.28;;;4.75;;
45650;SDS011;31365;48.858;8.530;2023-10-08T01:31:47;5.05;;;4.38;;
45650;SDS011;31365;48.858;8.530;2023-10-08T01:34:16;4.85;;;4.45;;
45650;SDS011;31365;48.858;8.530;2023-10-08T01:36:45;6.97;;;4.47;;
45650;SDS011;31365;48.858;8.530;2023-10-08T01:39:14;4.55;;;4.13;;
45650;SDS011;31365;48.858;8.530;2023-10-08T01:41:45;4.22;;;3.90;;
45650;SDS011;31365;48.858;8.530;2023-10-08T01:44:15;6.80;;;4.40;;
45650;SDS011;31365;48.858;8.530;2023-10-08T01:46:43;4.00;;;3.70;;
45650;SDS011;31365;48.858;8.530;2023-10-08T01:49:13;5.00;;;3.85;;
45650;SDS011;31365;48.858;8.530;2023-10-08T01:51:43;4.72;;;4.20;;
45650;SDS011;31365;48.858;8.530;2023-10-08T01:54:15;5.90;;;4.25;;
45650;SDS011;31365;48.858;8.530;2023-10-08T01:56:49;6.82;;;3.97;;
45650;SDS011;31365;48.858;8.530;2023-10-08T01:59:18;4.30;;;3.90;;
45650;SDS011;31365;48.858;8.530;2023-10-08T02:01:46;5.13;;;3.78;;
45650;SDS011;31365;48.858;8.530;2023-10-08T02:04:15;4.55;;;4.07;;
45650;SDS011;31365;48.858;8.530;2023-10-08T02:06:44;4.78;;;3.65;;
45650;SDS011;31365;48.858;8.530;2023-10-08T02:09:13;4.90;;;4.25;;
45650;SDS011;31365;48.858;8.530;2023-10-08T02:11:42;4.35;;;3.63;;
45650;SDS011;31365;48.858;8.530;2023-10-08T02:14:14;5.32;;;3.95;;
45650;SDS011;31365;48.858;8.530;2023-10-08T02:16:43;5.05;;;3.72;;
45650;SDS011;31365;48.858;8.530;2023-10-08T02:19:12;8.00;;;3.85;;
45650;SDS011;31365;48.858;8.530;2023-10-08T02:21:45;4.72;;;4.30;;
45650;SDS011;31365;48.858;8.530;2023-10-08T02:24:14;5.07;;;3.58;;
45650;SDS011;31365;48.858;8.530;2023-10-08T02:26:42;4.15;;;3.72;;
45650;SDS011;31365;48.858;8.530;2023-10-08T02:29:13;7.70;;;4.50;;
45650;SDS011;31365;48.858;8.530;2023-10-08T02:31:42;4.95;;;4.18;;
45650;SDS011;31365;48.858;8.530;2023-10-08T02:34:10;7.18;;;4.05;;
45650;SDS011;31365;48.858;8.530;2023-10-08T02:36:39;7.40;;;4.40;;
45650;SDS011;31365;48.858;8.530;2023-10-08T02:39:10;4.70;;;3.90;;
45650;SDS011;31365;48.858;8.530;2023-10-08T02:41:44;5.72;;;4.20;;
45650;SDS011;31365;48.858;8.530;2023-10-08T02:44:14;5.32;;;4.35;;
45650;SDS011;31365;48.858;8.530;2023-10-08T02:46:44;6.10;;;4.03;;
45650;SDS011;31365;48.858;8.530;2023-10-08T02:49:17;4.00;;;3.70;;
45650;SDS011;31365;48.858;8.530;2023-10-08T02:51:50;4.95;;;4.00;;
45650;SDS011;31365;48.858;8.530;2023-10-08T02:54:21;6.97;;;4.35;;
45650;SDS011;31365;48.858;8.530;2023-10-08T02:56:58;4.47;;;4.07;;
45650;SDS011;31365;48.858;8.530;2023-10-08T02:59:32;4.40;;;4.00;;
45650;SDS011;31365;48.858;8.530;2023-10-08T03:02:08;5.05;;;3.95;;
45650;SDS011;31365;48.858;8.530;2023-10-08T03:04:42;3.72;;;3.40;;
45650;SDS011;31365;48.858;8.530;2023-10-08T03:07:13;4.80;;;4.28;;
45650;SDS011;31365;48.858;8.530;2023-10-08T03:09:51;4.53;;;3.60;;
45650;SDS011;31365;48.858;8.530;2023-10-08T03:12:30;4.40;;;4.00;;
45650;SDS011;31365;48.858;8.530;2023-10-08T03:19:21;4.93;;;3.75;;
45650;SDS011;31365;48.858;8.530;2023-10-08T03:21:51;4.10;;;3.80;;
45650;SDS011;31365;48.858;8.530;2023-10-08T03:24:22;4.57;;;4.20;;
45650;SDS011;31365;48.858;8.530;2023-10-08T03:27:04;4.38;;;3.70;;
45650;SDS011;31365;48.858;8.530;2023-10-08T03:29:35;5.38;;;4.13;;
45650;SDS011;31365;48.858;8.530;2023-10-08T03:32:11;4.55;;;3.97;;
45650;SDS011;31365;48.858;8.530;2023-10-08T03:34:45;4.25;;;3.85;;
45650;SDS011;31365;48.858;8.530;2023-10-08T03:37:15;6.20;;;4.03;;
45650;SDS011;31365;48.858;8.530;2023-10-08T03:39:56;4.05;;;3.65;;
45650;SDS011;31365;48.858;8.530;2023-10-08T03:42:49;3.97;;;3.63;;
45650;SDS011;31365;48.858;8.530;2023-10-08T03:45:17;4.93;;;4.25;;
45650;SDS011;31365;48.858;8.530;2023-10-08T03:48:00;5.70;;;4.28;;
45650;SDS011;31365;48.858;8.530;2023-10-08T03:50:34;5.15;;;4.47;;
45650;SDS011;31365;48.858;8.530;2023-10-08T03:53:09;4.88;;;4.22;;
45650;SDS011;31365;48.858;8.530;2023-10-08T03:55:39;4.78;;;4.28;;
45650;SDS011;31365;48.858;8.530;2023-10-08T03:58:08;5.40;;;4.20;;
45650;SDS011;31365;48.858;8.530;2023-10-08T04:00:53;6.53;;;4.30;;
45650;SDS011;31365;48.858;8.530;2023-10-08T04:03:35;5.90;;;5.05;;
45650;SDS011;31365;48.858;8.530;2023-10-08T04:06:26;5.22;;;4.10;;
45650;SDS011;31365;48.858;8.530;2023-10-08T04:08:57;4.95;;;4.50;;
45650;SDS011;31365;48.858;8.530;2023-10-08T04:11:38;6.03;;;4.35;;
45650;SDS011;31365;48.858;8.530;2023-10-08T04:14:21;4.53;;;4.18;;
45650;SDS011;31365;48.858;8.530;2023-10-08T04:16:51;5.85;;;4.85;;
45650;SDS011;31365;48.858;8.530;2023-10-08T04:19:20;4.80;;;4.30;;
45650;SDS011;31365;48.858;8.530;2023-10-08T04:21:55;4.53;;;4.05;;
45650;SDS011;31365;48.858;8.530;2023-10-08T04:24:26;5.53;;;4.55;;
45650;SDS011;31365;48.858;8.530;2023-10-08T04:27:01;4.47;;;4.07;;
45650;SDS011;31365;48.858;8.530;2023-10-08T04:29:32;4.40;;;4.10;;
45650;SDS011;31365;48.858;8.530;2023-10-08T04:32:03;5.15;;;3.97;;
45650;SDS011;31365;48.858;8.530;2023-10-08T04:34:39;3.58;;;3.28;;
45650;SDS011;31365;48.858;8.530;2023-10-08T04:37:14;3.72;;;3.42;;
45650;SDS011;31365;48.858;8.530;2023-10-08T04:39:47;4.82;;;4.40;;
45650;SDS011;31365;48.858;8.530;2023-10-08T04:42:24;4.60;;;4.20;;
45650;SDS011;31365;48.858;8.530;2023-10-08T04:44:53;4.30;;;3.90;;
45650;SDS011;31365;48.858;8.530;2023-10-08T04:47:22;4.28;;;3.88;;
45650;SDS011;31365;48.858;8.530;2023-10-08T04:50:03;5.93;;;3.78;;
45650;SDS011;31365;48.858;8.530;2023-10-08T04:52:34;4.72;;;4.13;;
45650;SDS011;31365;48.858;8.530;2023-10-08T04:55:12;4.43;;;3.97;;
45650;SDS011;31365;48.858;8.530;2023-10-08T04:57:46;3.83;;;3.10;;
45650;SDS011;31365;48.858;8.530;2023-10-08T05:00:17;5.00;;;4.38;;
45650;SDS011;31365;48.858;8.530;2023-10-08T05:03:07;4.18;;;3.40;;
45650;SDS011;31365;48.858;8.530;2023-10-08T05:05:41;3.67;;;3.38;;
45650;SDS011;31365;48.858;8.530;2023-10-08T05:08:34;7.45;;;4.53;;
45650;SDS011;31365;48.858;8.530;2023-10-08T05:11:14;4.70;;;3.80;;
45650;SDS011;31365;48.858;8.530;2023-10-08T05:13:51;5.85;;;3.90;;
45650;SDS011;31365;48.858;8.530;2023-10-08T05:16:32;4.93;;;3.42;;
45650;SDS011;31365;48.858;8.530;2023-10-08T05:19:10;4.10;;;3.70;;
45650;SDS011;31365;48.858;8.530;2023-10-08T05:22:15;4.15;;;3.63;;
45650;SDS011;31365;48.858;8.530;2023-10-08T05:25:11;4.53;;;3.78;;
45650;SDS011;31365;48.858;8.530;2023-10-08T05:28:01;6.60;;;4.28;;
45650;SDS011;31365;48.858;8.530;2023-10-08T05:30:36;4.10;;;3.78;;
45650;SDS011;31365;48.858;8.530;2023-10-08T05:33:09;4.40;;;4.00;;
45650;SDS011;31365;48.858;8.530;2023-10-08T05:35:51;4.80;;;4.35;;
45650;SDS011;31365;48.858;8.530;2023-10-08T05:38:23;4.75;;;3.65;;
45650;SDS011;31365;48.858;8.530;2023-10-08T05:41:16;4.30;;;3.90;;
45650;SDS011;31365;48.858;8.530;2023-10-08T05:43:55;6.10;;;4.22;;
45650;SDS011;31365;48.858;8.530;2023-10-08T05:46:40;4.60;;;4.20;;
45650;SDS011;31365;48.858;8.530;2023-10-08T05:49:38;4.85;;;4.45;;
45650;SDS011;31365;48.858;8.530;2023-10-08T05:52:21;6.75;;;4.65;;
45650;SDS011;31365;48.858;8.530;2023-10-08T05:55:16;5.28;;;4.10;;
45650;SDS011;31365;48.858;8.530;2023-10-08T05:57:54;4.70;;;4.20;;
45650;SDS011;31365;48.858;8.530;2023-10-08T06:00:40;5.10;;;4.25;;
45650;SDS011;31365;48.858;8.530;2023-10-08T06:03:27;4.50;;;4.10;;
45650;SDS011;31365;48.858;8.530;2023-10-08T06:06:16;4.82;;;4.43;;
45650;SDS011;31365;48.858;8.530;2023-10-08T06:08:50;5.13;;;3.85;;
45650;SDS011;31365;48.858;8.530;2023-10-08T06:11:33;7.10;;;4.82;;
45650;SDS011;31365;48.858;8.530;2023-10-08T06:14:12;4.90;;;4.38;;
45650;SDS011;31365;48.858;8.530;2023-10-08T06:16:43;4.82;;;4.43;;
45650;SDS011;31365;48.858;8.530;2023-10-08T06:19:15;5.10;;;4.57;;
45650;SDS011;31365;48.858;8.530;2023-10-08T06:21:44;4.50;;;4.20;;
45650;SDS011;31365;48.858;8.530;2023-10-08T06:24:15;4.63;;;4.22;;
45650;SDS011;31365;48.858;8.530;2023-10-08T06:26:45;4.90;;;4.50;;
45650;SDS011;31365;48.858;8.530;2023-10-08T06:29:20;5.65;;;5.03;;
45650;SDS011;31365;48.858;8.530;2023-10-08T06:31:56;4.63;;;4.32;;
45650;SDS011;31365;48.858;8.530;2023-10-08T06:34:28;5.03;;;4.60;;
45650;SDS011;31365;48.858;8.530;2023-10-08T06:36:58;5.20;;;4.80;;
45650;SDS011;31365;48.858;8.530;2023-10-08T06:39:28;4.88;;;4.30;;
45650;SDS011;31365;48.858;8.530;2023-10-08T06:42:14;6.07;;;5.00;;
45650;SDS011;31365;48.858;8.530;2023-10-08T06:44:45;4.90;;;4.50;;
45650;SDS011;31365;48.858;8.530;2023-10-08T06:47:15;5.15;;;4.75;;
45650;SDS011;31365;48.858;8.530;2023-10-08T06:49:45;5.82;;;5.22;;
45650;SDS011;31365;48.858;8.530;2023-10-08T06:52:14;5.60;;;4.38;;
45650;SDS011;31365;48.858;8.530;2023-10-08T06:54:45;6.25;;;4.75;;
45650;SDS011;31365;48.858;8.530;2023-10-08T06:57:14;6.18;;;4.55;;
45650;SDS011;31365;48.858;8.530;2023-10-08T06:59:48;4.78;;;4.35;;
45650;SDS011;31365;48.858;8.530;2023-10-08T07:02:17;6.10;;;4.65;;
45650;SDS011;31365;48.858;8.530;2023-10-08T07:04:46;5.22;;;4.50;;
45650;SDS011;31365;48.858;8.530;2023-10-08T07:07:15;6.07;;;4.47;;
45650;SDS011;31365;48.858;8.530;2023-10-08T07:09:45;4.97;;;4.35;;
45650;SDS011;31365;48.858;8.530;2023-10-08T07:12:14;5.70;;;4.65;;
45650;SDS011;31365;48.858;8.530;2023-10-08T07:14:42;6.43;;;5.18;;
45650;SDS011;31365;48.858;8.530;2023-10-08T07:17:16;5.20;;;4.80;;
45650;SDS011;31365;48.858;8.530;2023-10-08T07:19:47;5.28;;;4.78;;
45650;SDS011;31365;48.858;8.530;2023-10-08T07:22:17;5.45;;;5.00;;
45650;SDS011;31365;48.858;8.530;2023-10-08T07:24:50;5.18;;;4.70;;
45650;SDS011;31365;48.858;8.530;2023-10-08T07:27:19;6.30;;;5.68;;
45650;SDS011;31365;48.858;8.530;2023-10-08T07:29:51;7.05;;;5.13;;
45650;SDS011;31365;48.858;8.530;2023-10-08T07:32:24;6.82;;;4.95;;
45650;SDS011;31365;48.858;8.530;2023-10-08T07:34:54;5.72;;;4.53;;
45650;SDS011;31365;48.858;8.530;2023-10-08T07:37:41;6.28;;;4.22;;
45650;SDS011;31365;48.858;8.530;2023-10-08T07:40:11;5.57;;;5.00;;
45650;SDS011;31365;48.858;8.530;2023-10-08T07:42:41;4.60;;;4.18;;
45650;SDS011;31365;48.858;8.530;2023-10-08T07:45:10;5.53;;;4.90;;
45650;SDS011;31365;48.858;8.530;2023-10-08T07:47:46;5.18;;;4.75;;
45650;SDS011;31365;48.858;8.530;2023-10-08T07:50:14;5.47;;;4.97;;
45650;SDS011;31365;48.858;8.530;2023-10-08T07:52:43;7.45;;;4.85;;
45650;SDS011;31365;48.858;8.530;2023-10-08T07:55:11;5.43;;;4.93;;
45650;SDS011;31365;48.858;8.530;2023-10-08T07:57:45;5.53;;;4.90;;
45650;SDS011;31365;48.858;8.530;2023-10-08T08:00:14;5.45;;;4.95;;
45650;SDS011;31365;48.858;8.530;2023-10-08T08:02:51;5.72;;;5.00;;
45650;SDS011;31365;48.858;8.530;2023-10-08T08:05:22;5.28;;;4.88;;
45650;SDS011;31365;48.858;8.530;2023-10-08T08:07:51;6.25;;;4.80;;
45650;SDS011;31365;48.858;8.530;2023-10-08T08:10:22;5.70;;;5.20;;
45650;SDS011;31365;48.858;8.530;2023-10-08T08:12:52;6.25;;;5.38;;
45650;SDS011;31365;48.858;8.530;2023-10-08T08:15:23;5.43;;;5.00;;
45650;SDS011;31365;48.858;8.530;2023-10-08T08:17:55;5.53;;;5.03;;
45650;SDS011;31365;48.858;8.530;2023-10-08T08:20:23;5.50;;;5.00;;
45650;SDS011;31365;48.858;8.530;2023-10-08T08:23:01;5.88;;;4.78;;
45650;SDS011;31365;48.858;8.530;2023-10-08T08:25:37;5.93;;;5.43;;
45650;SDS011;31365;48.858;8.530;2023-10-08T08:28:12;5.95;;;4.95;;
45650;SDS011;31365;48.858;8.530;2023-10-08T08:30:46;6.43;;;5.18;;
45650;SDS011;31365;48.858;8.530;2023-10-08T08:33:20;5.63;;;5.13;;
45650;SDS011;31365;48.858;8.530;2023-10-08T08:35:59;7.80;;;5.68;;
45650;SDS011;31365;48.858;8.530;2023-10-08T08:38:29;5.72;;;5.20;;
45650;SDS011;31365;48.858;8.530;2023-10-08T08:41:02;5.93;;;5.22;;
45650;SDS011;31365;48.858;8.530;2023-10-08T08:43:33;4.80;;;4.40;;
45650;SDS011;31365;48.858;8.530;2023-10-08T08:46:03;5.25;;;4.70;;
45650;SDS011;31365;48.858;8.530;2023-10-08T08:48:35;7.30;;;4.80;;
45650;SDS011;31365;48.858;8.530;2023-10-08T08:51:06;6.13;;;5.30;;
45650;SDS011;31365;48.858;8.530;2023-10-08T08:53:36;8.60;;;4.82;;
45650;SDS011;31365;48.858;8.530;2023-10-08T08:56:06;6.88;;;5.07;;
45650;SDS011;31365;48.858;8.530;2023-10-08T08:58:37;5.38;;;4.75;;
45650;SDS011;31365;48.858;8.530;2023-10-08T09:01:07;5.20;;;4.70;;
45650;SDS011;31365;48.858;8.530;2023-10-08T09:03:42;5.85;;;5.28;;
45650;SDS011;31365;48.858;8.530;2023-10-08T09:06:10;5.65;;;5.13;;
45650;SDS011;31365;48.858;8.530;2023-10-08T09:08:38;5.93;;;4.38;;
45650;SDS011;31365;48.858;8.530;2023-10-08T09:11:16;4.85;;;4.35;;
45650;SDS011;31365;48.858;8.530;2023-10-08T09:13:44;6.60;;;4.70;;
45650;SDS011;31365;48.858;8.530;2023-10-08T09:16:12;7.50;;;5.32;;
45650;SDS011;31365;48.858;8.530;2023-10-08T09:18:44;6.28;;;5.28;;
45650;SDS011;31365;48.858;8.530;2023-10-08T09:21:18;5.22;;;4.78;;
45650;SDS011;31365;48.858;8.530;2023-10-08T09:23:49;5.13;;;4.60;;
45650;SDS011;31365;48.858;8.530;2023-10-08T09:26:22;6.13;;;5.53;;
45650;SDS011;31365;48.858;8.530;2023-10-08T09:28:52;7.95;;;5.30;;
45650;SDS011;31365;48.858;8.530;2023-10-08T09:31:22;6.00;;;5.40;;
45650;SDS011;31365;48.858;8.530;2023-10-08T09:33:54;5.82;;;5.32;;
45650;SDS011;31365;48.858;8.530;2023-10-08T09:36:24;5.55;;;4.97;;
45650;SDS011;31365;48.858;8.530;2023-10-08T09:39:02;5.15;;;4.65;;
45650;SDS011;31365;48.858;8.530;2023-10-08T09:41:33;6.15;;;5.38;;
45650;SDS011;31365;48.858;8.530;2023-10-08T09:44:03;6.97;;;5.57;;
45650;SDS011;31365;48.858;8.530;2023-10-08T09:46:38;6.13;;;5.38;;
45650;SDS011;31365;48.858;8.530;2023-10-08T09:49:14;6.35;;;5.20;;
45650;SDS011;31365;48.858;8.530;2023-10-08T09:51:45;7.97;;;5.53;;
45650;SDS011;31365;48.858;8.530;2023-10-08T09:54:17;6.88;;;6.18;;
45650;SDS011;31365;48.858;8.530;2023-10-08T09:57:00;6.07;;;5.53;;
45650;SDS011;31365;48.858;8.530;2023-10-08T09:59:33;8.52;;;5.32;;
45650;SDS011;31365;48.858;8.530;2023-10-08T10:02:04;8.00;;;5.00;;
45650;SDS011;31365;48.858;8.530;2023-10-08T10:04:39;5.32;;;4.47;;
45650;SDS011;31365;48.858;8.530;2023-10-08T10:07:11;6.28;;;5.18;;
45650;SDS011;31365;48.858;8.530;2023-10-08T10:09:43;7.18;;;5.57;;
45650;SDS011;31365;48.858;8.530;2023-10-08T10:12:17;6.63;;;5.28;;
45650;SDS011;31365;48.858;8.530;2023-10-08T10:14:53;7.22;;;5.82;;
45650;SDS011;31365;48.858;8.530;2023-10-08T10:17:24;6.10;;;5.15;;
45650;SDS011;31365;48.858;8.530;2023-10-08T10:20:11;6.45;;;5.72;;
45650;SDS011;31365;48.858;8.530;2023-10-08T10:22:42;7.22;;;5.60;;
45650;SDS011;31365;48.858;8.530;2023-10-08T10:25:15;6.88;;;5.20;;
45650;SDS011;31365;48.858;8.530;2023-10-08T10:30:49;6.10;;;5.50;;
45650;SDS011;31365;48.858;8.530;2023-10-08T10:33:19;7.55;;;5.78;;
45650;SDS011;31365;48.858;8.530;2023-10-08T10:35:52;5.72;;;5.22;;
45650;SDS011;31365;48.858;8.530;2023-10-08T10:38:21;7.85;;;5.68;;
45650;SDS011;31365;48.858;8.530;2023-10-08T10:40:53;8.27;;;6.30;;
45650;SDS011;31365;48.858;8.530;2023-10-08T10:43:24;12.07;;;6.22;;
45650;SDS011;31365;48.858;8.530;2023-10-08T10:45:59;6.65;;;5.97;;
45650;SDS011;31365;48.858;8.530;2023-10-08T10:48:51;9.10;;;5.78;;
45650;SDS011;31365;48.858;8.530;2023-10-08T10:51:34;8.25;;;5.90;;
45650;SDS011;31365;48.858;8.530;2023-10-08T10:54:03;8.63;;;6.57;;
45650;SDS011;31365;48.858;8.530;2023-10-08T10:56:35;8.27;;;6.40;;
45650;SDS011;31365;48.858;8.530;2023-10-08T10:59:09;7.85;;;6.40;;
45650;SDS011;31365;48.858;8.530;2023-10-08T11:01:45;10.80;;;6.13;;
45650;SDS011;31365;48.858;8.530;2023-10-08T11:04:19;9.52;;;4.63;;
45650;SDS011;31365;48.858;8.530;2023-10-08T11:06:57;7.75;;;5.95;;
45650;SDS011;31365;48.858;8.530;2023-10-08T11:09:27;9.65;;;5.95;;
45650;SDS011;31365;48.858;8.530;2023-10-08T11:12:06;9.95;;;6.30;;
45650;SDS011;31365;48.858;8.530;2023-10-08T11:14:38;11.85;;;6.35;;
45650;SDS011;31365;48.858;8.530;2023-10-08T11:17:09;9.90;;;6.72;;
45650;SDS011;31365;48.858;8.530;2023-10-08T11:19:40;9.30;;;5.10;;
45650;SDS011;31365;48.858;8.530;2023-10-08T11:22:14;7.25;;;4.53;;
45650;SDS011;31365;48.858;8.530;2023-10-08T11:24:44;9.43;;;4.55;;
45650;SDS011;31365;48.858;8.530;2023-10-08T11:27:15;10.52;;;6.38;;
45650;SDS011;31365;48.858;8.530;2023-10-08T11:29:56;9.57;;;5.40;;
45650;SDS011;31365;48.858;8.530;2023-10-08T11:32:27;13.05;;;4.90;;
45650;SDS011;31365;48.858;8.530;2023-10-08T11:34:59;7.95;;;5.22;;
45650;SDS011;31365;48.858;8.530;2023-10-08T11:40:23;9.55;;;5.13;;
45650;SDS011;31365;48.858;8.530;2023-10-08T11:42:57;8.40;;;4.60;;
45650;SDS011;31365;48.858;8.530;2023-10-08T11:45:26;10.68;;;5.07;;
45650;SDS011;31365;48.858;8.530;2023-10-08T11:47:56;9.50;;;5.03;;
45650;SDS011;31365;48.858;8.530;2023-10-08T11:50:29;8.75;;;4.65;;
45650;SDS011;31365;48.858;8.530;2023-10-08T11:53:00;7.80;;;5.07;;
45650;SDS011;31365;48.858;8.530;2023-10-08T11:55:30;7.80;;;5.53;;
45650;SDS011;31365;48.858;8.530;2023-10-08T11:58:02;7.45;;;5.05;;
45650;SDS011;31365;48.858;8.530;2023-10-08T12:00:37;8.50;;;5.05;;
45650;SDS011;31365;48.858;8.530;2023-10-08T12:03:13;7.28;;;4.07;;
45650;SDS011;31365;48.858;8.530;2023-10-08T12:05:46;11.52;;;4.97;;
45650;SDS011;31365;48.858;8.530;2023-10-08T12:08:19;10.20;;;4.78;;
45650;SDS011;31365;48.858;8.530;2023-10-08T12:10:49;6.97;;;4.18;;
45650;SDS011;31365;48.858;8.530;2023-10-08T12:13:21;9.43;;;5.35;;
45650;SDS011;31365;48.858;8.530;2023-10-08T12:15:51;9.25;;;5.28;;
45650;SDS011;31365;48.858;8.530;2023-10-08T12:22:06;7.88;;;5.03;;
45650;SDS011;31365;48.858;8.530;2023-10-08T12:24:36;8.85;;;5.10;;
45650;SDS011;31365;48.858;8.530;2023-10-08T12:27:05;8.05;;;4.70;;
45650;SDS011;31365;48.858;8.530;2023-10-08T12:29:33;10.55;;;4.60;;
45650;SDS011;31365;48.858;8.530;2023-10-08T12:32:02;9.05;;;5.07;;
45650;SDS011;31365;48.858;8.530;2023-10-08T12:34:35;10.63;;;5.40;;
45650;SDS011;31365;48.858;8.530;2023-10-08T12:37:04;10.52;;;5.50;;
45650;SDS011;31365;48.858;8.530;2023-10-08T12:39:33;7.38;;;4.32;;
45650;SDS011;31365;48.858;8.530;2023-10-08T12:42:11;8.82;;;4.85;;
45650;SDS011;31365;48.858;8.530;2023-10-08T12:44:40;12.48;;;5.05;;
45650;SDS011;31365;48.858;8.530;2023-10-08T12:47:08;7.18;;;4.60;;
45650;SDS011;31365;48.858;8.530;2023-10-08T12:49:39;9.45;;;5.53;;
45650;SDS011;31365;48.858;8.530;2023-10-08T12:52:07;9.13;;;4.95;;
45650;SDS011;31365;48.858;8.530;2023-10-08T12:54:38;9.18;;;5.05;;
45650;SDS011;31365;48.858;8.530;2023-10-08T12:57:13;9.80;;;5.00;;
45650;SDS011;31365;48.858;8.530;2023-10-08T12:59:45;9.07;;;5.60;;
45650;SDS011;31365;48.858;8.530;2023-10-08T13:02:18;7.82;;;4.60;;
45650;SDS011;31365;48.858;8.530;2023-10-08T13:04:46;8.23;;;4.93;;
45650;SDS011;31365;48.858;8.530;2023-10-08T13:07:15;8.90;;;4.80;;
45650;SDS011;31365;48.858;8.530;2023-10-08T13:09:48;8.05;;;4.50;;
45650;SDS011;31365;48.858;8.530;2023-10-08T13:12:18;7.85;;;4.63;;
45650;SDS011;31365;48.858;8.530;2023-10-08T13:14:47;7.00;;;4.30;;
45650;SDS011;31365;48.858;8.530;2023-10-08T13:17:16;8.00;;;4.82;;
45650;SDS011;31365;48.858;8.530;2023-10-08T13:19:46;8.80;;;4.70;;
45650;SDS011;31365;48.858;8.530;2023-10-08T13:22:14;10.45;;;5.03;;
45650;SDS011;31365;48.858;8.530;2023-10-08T13:24:46;9.65;;;4.88;;
45650;SDS011;31365;48.858;8.530;2023-10-08T13:27:15;9.70;;;4.97;;
45650;SDS011;31365;48.858;8.530;2023-10-08T13:29:45;11.48;;;5.10;;
45650;SDS011;31365;48.858;8.530;2023-10-08T13:32:13;9.23;;;4.43;;
45650;SDS011;31365;48.858;8.530;2023-10-08T13:34:44;8.05;;;5.03;;
45650;SDS011;31365;48.858;8.530;2023-10-08T13:37:13;8.83;;;5.07;;
45650;SDS011;31365;48.858;8.530;2023-10-08T13:39:42;10.33;;;4.63;;
45650;SDS011;31365;48.858;8.530;2023-10-08T13:42:10;9.85;;;5.00;;
45650;SDS011;31365;48.858;8.530;2023-10-08T13:44:47;7.28;;;4.90;;
45650;SDS011;31365;48.858;8.530;2023-10-08T13:47:15;9.50;;;4.97;;
45650;SDS011;31365;48.858;8.530;2023-10-08T13:49:43;8.25;;;4.72;;
45650;SDS011;31365;48.858;8.530;2023-10-08T13:52:14;10.60;;;5.30;;
45650;SDS011;31365;48.858;8.530;2023-10-08T13:54:44;8.40;;;5.03;;
45650;SDS011;31365;48.858;8.530;2023-10-08T13:57:18;9.20;;;5.30;;
45650;SDS011;31365;48.858;8.530;2023-10-08T13:59:48;8.02;;;4.90;;
45650;SDS011;31365;48.858;8.530;2023-10-08T14:02:17;8.82;;;4.80;;
45650;SDS011;31365;48.858;8.530;2023-10-08T14:04:48;11.05;;;5.70;;
45650;SDS011;31365;48.858;8.530;2023-10-08T14:07:20;10.32;;;5.45;;
45650;SDS011;31365;48.858;8.530;2023-10-08T14:09:48;9.53;;;5.20;;
45650;SDS011;31365;48.858;8.530;2023-10-08T14:12:17;9.63;;;5.65;;
45650;SDS011;31365;48.858;8.530;2023-10-08T14:14:45;10.80;;;5.40;;
45650;SDS011;31365;48.858;8.530;2023-10-08T14:17:17;12.48;;;5.13;;
45650;SDS011;31365;48.858;8.530;2023-10-08T14:20:06;8.43;;;6.13;;
45650;SDS011;31365;48.858;8.530;2023-10-08T14:22:40;9.68;;;6.32;;
45650;SDS011;31365;48.858;8.530;2023-10-08T14:25:10;12.48;;;6.40;;
45650;SDS011;31365;48.858;8.530;2023-10-08T14:27:41;11.00;;;6.40;;
45650;SDS011;31365;48.858;8.530;2023-10-08T14:30:18;10.48;;;6.95;;
45650;SDS011;31365;48.858;8.530;2023-10-08T14:32:51;13.38;;;6.40;;
45650;SDS011;31365;48.858;8.530;2023-10-08T14:35:24;11.60;;;6.55;;
45650;SDS011;31365;48.858;8.530;2023-10-08T14:38:10;11.93;;;6.60;;
45650;SDS011;31365;48.858;8.530;2023-10-08T14:40:56;10.43;;;6.45;;
45650;SDS011;31365;48.858;8.530;2023-10-08T14:43:44;17.30;;;6.30;;
45650;SDS011;31365;48.858;8.530;2023-10-08T14:46:14;9.88;;;6.65;;
45650;SDS011;31365;48.858;8.530;2023-10-08T14:48:46;13.30;;;6.45;;
45650;SDS011;31365;48.858;8.530;2023-10-08T14:51:16;12.90;;;6.95;;
45650;SDS011;31365;48.858;8.530;2023-10-08T14:53:47;14.95;;;7.03;;
45650;SDS011;31365;48.858;8.530;2023-10-08T14:56:15;10.98;;;6.57;;
45650;SDS011;31365;48.858;8.530;2023-10-08T14:58:45;11.30;;;6.60;;
45650;SDS011;31365;48.858;8.530;2023-10-08T15:01:15;10.40;;;6.22;;
45650;SDS011;31365;48.858;8.530;2023-10-08T15:03:47;9.60;;;6.45;;
45650;SDS011;31365;48.858;8.530;2023-10-08T15:06:17;16.80;;;7.05;;
45650;SDS011;31365;48.858;8.530;2023-10-08T15:08:46;11.27;;;6.32;;
45650;SDS011;31365;48.858;8.530;2023-10-08T15:11:16;14.27;;;6.75;;
45650;SDS011;31365;48.858;8.530;2023-10-08T15:13:45;12.10;;;5.60;;
45650;SDS011;31365;48.858;8.530;2023-10-08T15:16:17;9.88;;;5.28;;
45650;SDS011;31365;48.858;8.530;2023-10-08T15:18:49;13.07;;;5.70;;
45650;SDS011;31365;48.858;8.530;2023-10-08T15:21:18;14.32;;;6.00;;
45650;SDS011;31365;48.858;8.530;2023-10-08T15:23:48;11.18;;;5.88;;
45650;SDS011;31365;48.858;8.530;2023-10-08T15:26:17;12.48;;;6.28;;
45650;SDS011;31365;48.858;8.530;2023-10-08T15:28:46;10.00;;;6.40;;
45650;SDS011;31365;48.858;8.530;2023-10-08T15:31:15;11.65;;;6.10;;
45650;SDS011;31365;48.858;8.530;2023-10-08T15:33:44;13.13;;;5.53;;
45650;SDS011;31365;48.858;8.530;2023-10-08T15:36:14;9.75;;;5.28;;